Time;durP1;ratioP1;P1;durP2;ratioP2;P2;SDS_P1;SDS_P2;PMS_P1;PMS_P2;Temp;Humidity;BMP_temperature;BMP_pressure;BME280_temperature;BME280_humidity;BME280_pressure;Samples;Min_cycle;Max_cycle;Signal;HPM_P1;HPM_P2
2022/05/01 00:01:18;;;;;;;13.57;9.20;;;18.30;53.20;;;;;;5015702;28;20025;-82
2022/05/01 00:03:44;;;;;;;11.13;9.18;;;18.40;52.80;;;;;;5015436;28;20057;-81
2022/05/01 00:06:11;;;;;;;11.40;9.20;;;18.50;53.20;;;;;;5017890;28;20017;-82
2022/05/01 00:08:39;;;;;;;13.50;9.25;;;18.50;52.50;;;;;;5019078;28;20060;-83
2022/05/01 00:11:05;;;;;;;11.82;9.27;;;18.50;52.70;;;;;;5036907;28;20029;-81
2022/05/01 00:13:32;;;;;;;11.23;9.23;;;18.70;52.70;;;;;;5038112;28;20025;-82
2022/05/01 00:15:57;;;;;;;12.98;9.52;;;18.40;53.30;;;;;;5027684;28;20104;-80
2022/05/01 00:18:23;;;;;;;12.35;8.60;;;18.60;53.20;;;;;;5018264;28;20050;-82
2022/05/01 00:20:49;;;;;;;11.50;8.68;;;18.70;52.90;;;;;;5038392;28;20063;-81
2022/05/01 00:23:15;;;;;;;12.70;7.80;;;18.60;52.70;;;;;;5052240;28;20044;-81
2022/05/01 00:25:42;;;;;;;11.43;7.75;;;18.50;52.10;;;;;;5055900;28;20079;-82
2022/05/01 00:28:14;;;;;;;10.63;7.40;;;18.30;52.40;;;;;;5037216;28;20029;-82
2022/05/01 00:30:41;;;;;;;10.25;7.65;;;18.40;51.70;;;;;;5037786;28;20028;-82
2022/05/01 00:38:37;;;;;;;11.05;7.80;;;18.60;51.70;;;;;;5049091;28;20483;-84
2022/05/01 00:41:07;;;;;;;9.55;7.93;;;18.80;51.70;;;;;;5038006;28;20033;-82
2022/05/01 00:44:12;;;;;;;8.70;6.65;;;18.80;52.00;;;;;;5018377;28;20029;-82
2022/05/01 00:46:50;;;;;;;10.18;7.25;;;18.80;51.40;;;;;;4990585;28;20042;-83
2022/05/01 00:49:27;;;;;;;10.15;7.40;;;19.00;50.90;;;;;;4978625;28;20031;-84
2022/05/01 00:52:04;;;;;;;10.02;7.95;;;19.00;51.80;;;;;;4978526;28;20066;-83
2022/05/01 00:54:31;;;;;;;10.18;8.07;;;18.70;52.20;;;;;;4994542;28;20065;-86
2022/05/01 00:57:04;;;;;;;9.98;7.70;;;18.60;52.60;;;;;;4978426;28;20030;-84
2022/05/01 00:59:31;;;;;;;10.98;8.25;;;18.20;53.40;;;;;;4978027;28;20027;-83
2022/05/01 01:01:57;;;;;;;9.45;7.47;;;18.20;53.60;;;;;;4994609;28;20026;-84
2022/05/01 01:04:23;;;;;;;10.38;6.82;;;18.30;52.50;;;;;;4977977;28;20037;-82
2022/05/01 01:06:49;;;;;;;11.43;6.97;;;18.60;52.00;;;;;;4978180;28;20026;-81
2022/05/01 01:09:16;;;;;;;9.95;7.28;;;18.60;51.90;;;;;;4965440;28;20030;-82
2022/05/01 01:11:42;;;;;;;8.18;6.38;;;18.40;52.40;;;;;;4994093;28;20485;-81
2022/05/01 01:14:10;;;;;;;10.82;6.88;;;18.50;52.10;;;;;;4993686;28;20035;-81
2022/05/01 01:16:37;;;;;;;9.10;7.05;;;18.60;52.00;;;;;;4988068;28;20033;-82
2022/05/01 01:19:08;;;;;;;10.18;7.25;;;18.70;51.80;;;;;;5055146;28;20484;-82
2022/05/01 01:21:35;;;;;;;10.68;7.03;;;18.90;51.40;;;;;;5035109;28;20029;-81
2022/05/01 01:24:06;;;;;;;8.45;6.82;;;19.10;51.20;;;;;;5034481;28;20029;-81
2022/05/01 01:26:34;;;;;;;10.15;7.30;;;19.20;51.10;;;;;;5035210;28;20013;-81
2022/05/01 01:29:00;;;;;;;15.55;7.43;;;19.20;51.30;;;;;;5021419;28;20021;-80
2022/05/01 01:31:42;;;;;;;8.63;6.45;;;19.30;51.70;;;;;;5054612;28;20009;-79
2022/05/01 01:34:14;;;;;;;7.90;6.75;;;18.70;50.40;;;;;;5054922;28;20020;-81
2022/05/01 01:36:42;;;;;;;11.23;6.60;;;17.50;53.90;;;;;;5036864;28;20456;-81
2022/05/01 01:39:08;;;;;;;9.63;6.38;;;17.50;53.90;;;;;;5028364;28;20422;-80
2022/05/01 01:41:35;;;;;;;10.35;6.85;;;17.90;53.20;;;;;;5036690;28;20428;-81
2022/05/01 01:44:02;;;;;;;10.30;7.20;;;18.00;53.70;;;;;;5036671;28;20539;-80
2022/05/01 01:46:29;;;;;;;9.32;6.68;;;18.20;53.90;;;;;;5053750;28;20031;-80
2022/05/01 01:48:54;;;;;;;8.38;6.60;;;18.30;53.40;;;;;;5044336;28;20033;-80
2022/05/01 01:51:20;;;;;;;10.15;6.50;;;18.20;53.10;;;;;;5034442;28;20014;-83
2022/05/01 01:53:46;;;;;;;10.95;7.25;;;18.30;52.40;;;;;;5036218;28;20025;-80
2022/05/01 01:56:12;;;;;;;8.70;6.80;;;18.30;53.30;;;;;;5054357;28;20028;-80
2022/05/01 01:58:40;;;;;;;10.55;7.13;;;18.30;52.70;;;;;;5034921;28;20033;-81
2022/05/01 02:01:07;;;;;;;9.90;6.55;;;18.10;52.90;;;;;;5016683;28;20018;-81
2022/05/01 02:03:36;;;;;;;10.23;6.68;;;18.20;53.00;;;;;;5016161;28;20512;-81
2022/05/01 02:06:04;;;;;;;8.20;6.72;;;18.10;52.60;;;;;;5034077;28;20017;-80
2022/05/01 02:08:31;;;;;;;8.82;6.50;;;18.10;52.60;;;;;;5033627;28;20020;-79
2022/05/01 02:10:56;;;;;;;17.42;7.10;;;17.80;52.90;;;;;;5019831;28;20013;-80
2022/05/01 02:13:22;;;;;;;12.13;7.18;;;17.70;53.00;;;;;;5036008;28;20490;-80
2022/05/01 02:15:48;;;;;;;9.63;6.47;;;17.90;52.90;;;;;;5048621;28;20017;-80
2022/05/01 02:18:14;;;;;;;8.73;6.05;;;17.80;52.90;;;;;;5053207;28;20049;-80
2022/05/01 02:23:25;;;;;;;8.23;6.80;;;17.50;54.00;;;;;;5046288;28;20375;-81
2022/05/01 02:25:51;;;;;;;9.65;5.90;;;17.50;54.10;;;;;;5032854;28;20046;-80
2022/05/01 02:28:17;;;;;;;8.93;5.93;;;17.50;53.20;;;;;;5015333;28;20372;-80
2022/05/01 02:30:44;;;;;;;8.68;6.10;;;17.80;52.30;;;;;;5015207;28;20020;-78
2022/05/01 02:33:11;;;;;;;9.50;6.45;;;17.80;52.50;;;;;;5033531;28;20025;-79
2022/05/01 02:35:37;;;;;;;9.23;6.00;;;17.70;52.70;;;;;;5015462;28;20516;-80
2022/05/01 02:38:04;;;;;;;8.48;6.35;;;17.50;53.00;;;;;;5015656;28;20408;-80
2022/05/01 02:40:31;;;;;;;8.82;7.00;;;17.80;52.60;;;;;;5015847;28;20021;-80
2022/05/01 02:42:58;;;;;;;8.52;5.95;;;17.90;53.10;;;;;;5033667;28;20101;-78
2022/05/01 02:45:27;;;;;;;8.32;6.22;;;17.70;52.90;;;;;;5052079;28;20025;-79
2022/05/01 02:47:54;;;;;;;11.10;6.75;;;17.70;52.90;;;;;;5035715;28;20029;-80
2022/05/01 02:50:19;;;;;;;8.32;6.45;;;17.80;51.90;;;;;;5025677;28;20021;-81
2022/05/01 02:52:45;;;;;;;8.73;6.78;;;17.80;52.10;;;;;;5030645;28;20036;-80
2022/05/01 02:55:11;;;;;;;10.50;6.57;;;18.00;52.50;;;;;;5033427;28;20055;-79
2022/05/01 02:57:38;;;;;;;10.30;6.70;;;17.70;53.10;;;;;;5052902;28;20508;-80
2022/05/01 03:00:05;;;;;;;9.45;6.55;;;17.80;52.60;;;;;;5034196;28;20479;-79
2022/05/01 03:02:32;;;;;;;8.38;6.10;;;17.90;52.10;;;;;;5035178;28;20025;-79
2022/05/01 03:04:58;;;;;;;8.95;7.03;;;17.50;52.60;;;;;;5045074;28;20376;-83
2022/05/01 03:07:24;;;;;;;8.65;6.57;;;17.00;54.70;;;;;;5033519;28;20523;-80
2022/05/01 03:09:49;;;;;;;9.10;6.80;;;17.30;54.00;;;;;;5019036;28;20021;-79
2022/05/01 03:12:18;;;;;;;11.15;7.20;;;17.20;53.30;;;;;;5048566;28;20025;-80
2022/05/01 03:14:45;;;;;;;9.98;6.78;;;16.90;54.70;;;;;;5046326;28;20349;-81
2022/05/01 03:17:10;;;;;;;10.05;6.93;;;17.30;54.20;;;;;;5032817;28;20049;-79
2022/05/01 03:22:21;;;;;;;7.80;6.53;;;17.60;53.40;;;;;;5032617;28;20028;-79
2022/05/01 03:24:47;;;;;;;8.38;6.53;;;17.60;53.60;;;;;;5040132;28;20108;-80
2022/05/01 03:27:13;;;;;;;9.32;6.55;;;17.60;54.00;;;;;;5034233;28;20103;-80
2022/05/01 03:29:39;;;;;;;9.10;6.50;;;17.80;53.10;;;;;;5034605;28;20033;-79
2022/05/01 03:32:07;;;;;;;8.80;6.75;;;17.60;53.70;;;;;;5052625;28;20021;-80
2022/05/01 03:34:39;;;;;;;9.43;7.00;;;17.80;53.50;;;;;;5048549;28;20036;-79
2022/05/01 03:37:08;;;;;;;8.15;6.55;;;18.20;53.30;;;;;;5032801;28;20396;-80
2022/05/01 03:39:35;;;;;;;10.13;7.18;;;18.60;53.00;;;;;;5033003;28;20127;-81
2022/05/01 03:42:01;;;;;;;12.32;7.15;;;18.70;52.50;;;;;;5019253;28;20374;-81
2022/05/01 03:44:27;;;;;;;9.38;6.70;;;18.90;52.20;;;;;;5018517;28;20072;-80
2022/05/01 03:46:52;;;;;;;9.10;7.22;;;19.00;51.90;;;;;;5035663;28;20106;-80
2022/05/01 03:49:18;;;;;;;9.73;7.22;;;19.00;52.10;;;;;;5018788;28;20060;-80
2022/05/01 03:51:44;;;;;;;9.55;6.82;;;19.00;51.60;;;;;;5036743;28;20014;-80
2022/05/01 03:54:09;;;;;;;8.20;6.70;;;19.20;51.50;;;;;;5036100;28;20029;-80
2022/05/01 03:56:35;;;;;;;8.48;6.72;;;19.10;51.80;;;;;;5055165;28;20024;-81
2022/05/01 03:59:04;;;;;;;9.45;7.22;;;19.20;52.10;;;;;;5037775;28;20033;-81
2022/05/01 04:01:30;;;;;;;9.50;7.13;;;19.00;51.90;;;;;;5038747;28;20040;-80
2022/05/01 04:03:56;;;;;;;9.50;7.28;;;19.10;51.90;;;;;;5055018;28;20383;-80
2022/05/01 04:06:22;;;;;;;9.73;7.43;;;19.30;51.50;;;;;;5056315;28;20475;-80
2022/05/01 04:08:48;;;;;;;10.82;7.95;;;19.20;51.90;;;;;;5036383;28;20075;-81
2022/05/01 04:11:14;;;;;;;12.77;9.32;;;19.00;52.60;;;;;;5055091;28;20029;-80
2022/05/01 04:13:40;;;;;;;15.68;10.23;;;18.80;52.80;;;;;;5038200;28;20047;-80
2022/05/01 04:16:06;;;;;;;14.70;9.55;;;18.60;52.50;;;;;;5028741;28;20021;-80
2022/05/01 04:18:31;;;;;;;9.93;8.05;;;18.80;51.60;;;;;;5035783;28;20045;-80
2022/05/01 04:20:58;;;;;;;11.93;8.68;;;19.00;50.80;;;;;;5046727;28;20025;-80
2022/05/01 04:23:24;;;;;;;11.70;8.90;;;19.30;51.30;;;;;;5038421;28;20017;-79
2022/05/01 04:25:50;;;;;;;11.98;8.00;;;19.50;50.20;;;;;;5022160;28;20055;-85
2022/05/01 04:28:16;;;;;;;12.07;8.20;;;19.40;48.40;;;;;;5036575;28;20024;-78
2022/05/01 04:30:42;;;;;;;13.48;8.13;;;19.30;49.20;;;;;;5022763;28;20030;-80
2022/05/01 04:33:13;;;;;;;11.43;8.68;;;19.50;49.10;;;;;;5035652;28;20028;-80
2022/05/01 04:35:43;;;;;;;10.77;7.63;;;19.80;48.50;;;;;;5035781;28;20360;-79
2022/05/01 04:38:11;;;;;;;10.88;8.10;;;19.90;47.80;;;;;;5036835;28;20025;-80
2022/05/01 04:40:39;;;;;;;9.50;7.13;;;20.10;48.70;;;;;;5035691;28;20388;-79
2022/05/01 04:43:09;;;;;;;9.30;6.95;;;19.90;48.10;;;;;;5017793;28;20104;-79
2022/05/01 04:45:37;;;;;;;10.63;7.78;;;19.80;48.70;;;;;;5035098;28;20044;-79
2022/05/01 04:48:04;;;;;;;9.27;7.53;;;20.10;48.60;;;;;;5053884;28;20116;-79
2022/05/01 04:50:30;;;;;;;10.55;7.60;;;20.30;48.80;;;;;;5036942;28;20086;-79
2022/05/01 04:52:57;;;;;;;9.13;6.90;;;20.50;49.00;;;;;;5037310;28;20396;-78
2022/05/01 04:55:23;;;;;;;8.10;6.65;;;20.30;48.70;;;;;;5055286;28;20021;-78
2022/05/01 04:57:49;;;;;;;10.05;7.70;;;19.20;48.90;;;;;;5033509;28;20056;-77
2022/05/01 05:00:19;;;;;;;9.85;7.00;;;19.10;50.30;;;;;;5055089;28;20442;-78
2022/05/01 05:02:50;;;;;;;9.70;7.25;;;19.60;50.30;;;;;;5037276;28;20024;-79
2022/05/01 05:05:18;;;;;;;8.90;7.22;;;20.00;49.70;;;;;;5048826;28;20017;-78
2022/05/01 05:07:45;;;;;;;11.63;8.02;;;20.30;49.30;;;;;;5034827;28;20118;-80
2022/05/01 05:10:12;;;;;;;12.20;8.25;;;20.30;49.30;;;;;;5052531;28;20095;-78
2022/05/01 05:12:42;;;;;;;11.82;8.45;;;20.50;49.30;;;;;;5040471;28;20137;-78
2022/05/01 05:15:10;;;;;;;10.63;8.27;;;20.60;49.60;;;;;;5022282;28;20403;-77
2022/05/01 05:17:37;;;;;;;12.15;7.78;;;20.80;49.60;;;;;;5026462;28;20028;-76
2022/05/01 05:20:04;;;;;;;10.50;7.90;;;20.40;48.30;;;;;;5033291;28;20045;-78
2022/05/01 05:22:30;;;;;;;10.98;7.65;;;19.90;50.10;;;;;;5026594;28;20021;-77
2022/05/01 05:24:56;;;;;;;10.43;6.97;;;20.10;48.80;;;;;;5027836;28;20032;-79
2022/05/01 05:27:25;;;;;;;8.25;6.78;;;20.40;47.70;;;;;;5032967;28;20064;-78
2022/05/01 05:29:55;;;;;;;11.25;6.65;;;19.80;47.90;;;;;;5033666;28;20558;-79
2022/05/01 05:32:21;;;;;;;9.30;6.85;;;19.30;48.70;;;;;;5033646;28;20060;-77
2022/05/01 05:34:47;;;;;;;10.05;6.30;;;19.40;49.00;;;;;;5031925;28;20049;-79
2022/05/01 05:37:17;;;;;;;8.80;6.47;;;19.60;48.20;;;;;;5031695;28;20059;-78
2022/05/01 05:39:43;;;;;;;8.85;6.90;;;20.00;48.50;;;;;;5034174;28;20178;-86
2022/05/01 05:42:09;;;;;;;8.40;6.75;;;20.40;48.10;;;;;;5033600;28;20483;-82
2022/05/01 05:44:35;;;;;;;10.32;6.50;;;20.80;47.60;;;;;;5033418;28;20476;-79
2022/05/01 05:47:01;;;;;;;8.23;6.65;;;21.10;47.10;;;;;;5017465;28;20033;-83
2022/05/01 05:49:26;;;;;;;9.55;6.85;;;21.00;46.90;;;;;;5014376;28;20392;-79
2022/05/01 05:51:52;;;;;;;7.97;6.65;;;21.20;46.80;;;;;;5014779;28;20014;-79
2022/05/01 05:54:18;;;;;;;11.75;6.78;;;21.40;46.30;;;;;;5033039;28;20166;-77
2022/05/01 05:56:44;;;;;;;8.10;6.38;;;21.00;47.60;;;;;;5032762;28;20025;-79
2022/05/01 05:59:09;;;;;;;11.43;7.20;;;20.40;48.90;;;;;;5032672;28;20057;-80
2022/05/01 06:01:35;;;;;;;8.75;6.60;;;20.80;48.20;;;;;;5030522;28;20024;-79
2022/05/01 06:04:01;;;;;;;9.48;6.65;;;20.60;49.20;;;;;;5031259;28;20025;-78
2022/05/01 06:06:27;;;;;;;8.57;6.53;;;20.90;48.30;;;;;;5019167;28;20488;-78
2022/05/01 06:08:53;;;;;;;9.13;6.70;;;21.30;48.10;;;;;;5027997;28;20024;-81
2022/05/01 06:11:18;;;;;;;10.07;6.40;;;21.60;48.00;;;;;;5033083;28;20359;-89
2022/05/01 06:13:44;;;;;;;10.90;7.20;;;21.70;47.60;;;;;;5032287;28;20120;-79
2022/05/01 06:16:10;;;;;;;8.93;6.55;;;22.00;47.90;;;;;;5031085;28;20029;-79
2022/05/01 06:18:36;;;;;;;7.75;6.15;;;22.60;47.50;;;;;;5031544;28;20048;-82
2022/05/01 06:21:02;;;;;;;9.50;6.47;;;22.70;47.10;;;;;;5031266;28;20021;-81
2022/05/01 06:23:28;;;;;;;8.82;6.32;;;22.90;47.70;;;;;;5031647;28;20062;-82
2022/05/01 06:25:54;;;;;;;9.13;6.03;;;23.00;45.70;;;;;;5029918;28;20368;-83
2022/05/01 06:28:20;;;;;;;8.77;7.07;;;22.90;46.00;;;;;;5031454;28;20017;-83
2022/05/01 06:30:47;;;;;;;8.57;6.85;;;22.60;46.80;;;;;;5031477;28;20028;-81
2022/05/01 06:33:16;;;;;;;18.75;15.23;;;22.80;46.50;;;;;;5032153;28;20163;-81
2022/05/01 06:35:48;;;;;;;9.10;7.65;;;22.30;46.90;;;;;;5027211;28;20029;-77
2022/05/01 06:38:14;;;;;;;10.02;7.85;;;20.30;48.60;;;;;;5029889;28;20118;-77
2022/05/01 06:40:43;;;;;;;10.32;6.70;;;19.60;51.50;;;;;;5016158;28;20042;-77
2022/05/01 06:43:10;;;;;;;8.60;5.78;;;20.20;51.20;;;;;;5020662;28;20372;-79
2022/05/01 06:45:36;;;;;;;10.75;6.20;;;21.20;48.80;;;;;;5023923;28;20030;-82
2022/05/01 06:48:02;;;;;;;9.70;6.13;;;21.40;46.80;;;;;;5012430;28;20018;-78
2022/05/01 06:50:29;;;;;;;8.85;6.40;;;21.10;45.90;;;;;;5013486;28;20026;-81
2022/05/01 06:52:55;;;;;;;7.95;5.80;;;21.40;47.00;;;;;;5017326;28;20013;-81
2022/05/01 06:55:23;;;;;;;7.75;5.45;;;21.70;47.60;;;;;;5013749;28;20052;-81
2022/05/01 06:57:49;;;;;;;6.35;5.38;;;20.40;44.50;;;;;;5015087;28;20029;-78
2022/05/01 07:00:15;;;;;;;9.02;5.88;;;19.20;46.20;;;;;;5023537;28;20025;-79
2022/05/01 07:02:49;;;;;;;8.20;5.45;;;19.30;47.40;;;;;;5015979;28;20374;-77
2022/05/01 07:05:15;;;;;;;8.70;5.85;;;20.00;46.00;;;;;;5021467;28;20022;-81
2022/05/01 07:07:41;;;;;;;7.80;5.90;;;20.40;45.90;;;;;;5023754;28;20486;-79
2022/05/01 07:10:07;;;;;;;8.07;5.53;;;20.50;45.40;;;;;;5031026;28;20116;-78
2022/05/01 07:12:33;;;;;;;9.65;5.57;;;20.70;45.90;;;;;;5030860;28;20032;-78
2022/05/01 07:14:59;;;;;;;6.35;5.38;;;21.10;45.70;;;;;;5031667;28;20021;-78
2022/05/01 07:17:25;;;;;;;9.30;5.50;;;21.40;45.70;;;;;;5025872;28;20021;-80
2022/05/01 07:19:51;;;;;;;6.97;5.43;;;21.20;45.70;;;;;;5029366;28;20045;-77
2022/05/01 07:22:19;;;;;;;8.35;5.82;;;21.90;46.10;;;;;;5031177;28;20075;-79
2022/05/01 07:24:45;;;;;;;8.43;6.10;;;22.60;44.90;;;;;;5030615;28;20112;-78
2022/05/01 07:27:11;;;;;;;8.52;5.88;;;22.50;44.80;;;;;;5030906;28;20096;-78
2022/05/01 07:29:37;;;;;;;11.00;6.30;;;22.00;43.80;;;;;;5030151;28;20659;-83
2022/05/01 07:32:03;;;;;;;7.85;5.90;;;21.30;46.10;;;;;;5030007;28;20467;-79
2022/05/01 07:34:28;;;;;;;7.68;5.15;;;21.90;44.90;;;;;;5019086;28;20026;-78
2022/05/01 07:36:55;;;;;;;7.10;5.47;;;22.20;45.40;;;;;;5018263;28;20018;-79
2022/05/01 07:39:21;;;;;;;12.60;5.78;;;22.50;47.20;;;;;;5013826;28;20030;-79
2022/05/01 07:41:46;;;;;;;7.85;5.80;;;21.90;45.40;;;;;;5010713;28;20022;-82
2022/05/01 07:44:12;;;;;;;10.82;5.57;;;21.50;47.00;;;;;;5013482;28;20014;-82
2022/05/01 07:46:42;;;;;;;8.15;5.85;;;21.00;47.20;;;;;;5012849;28;20018;-84
2022/05/01 07:49:08;;;;;;;7.70;5.63;;;20.80;47.80;;;;;;5013321;28;20026;-81
2022/05/01 07:51:35;;;;;;;8.65;5.82;;;20.70;51.00;;;;;;5010401;28;20030;-82
2022/05/01 07:54:01;;;;;;;7.18;5.40;;;21.20;48.70;;;;;;5010170;28;20056;-80
2022/05/01 07:56:28;;;;;;;9.10;5.10;;;21.60;48.30;;;;;;5012345;28;20022;-81
2022/05/01 07:58:54;;;;;;;11.30;5.80;;;22.20;47.50;;;;;;5011597;28;20038;-79
2022/05/01 08:01:20;;;;;;;8.93;5.45;;;21.90;47.50;;;;;;5012558;28;20017;-81
2022/05/01 08:06:30;;;;;;;8.27;5.50;;;23.40;48.20;;;;;;5012813;28;20060;-80
2022/05/01 08:08:55;;;;;;;6.55;5.07;;;24.30;47.90;;;;;;5011763;28;20022;-82
2022/05/01 08:11:21;;;;;;;7.75;4.35;;;24.10;45.00;;;;;;5012651;28;20026;-79
2022/05/01 08:13:47;;;;;;;6.45;4.32;;;23.60;47.80;;;;;;5012431;28;20022;-80
2022/05/01 08:16:13;;;;;;;6.47;4.50;;;23.90;47.80;;;;;;5011604;28;20064;-79
2022/05/01 08:21:23;;;;;;;5.53;3.75;;;25.00;47.50;;;;;;5013150;28;20412;-83
2022/05/01 08:23:49;;;;;;;7.50;3.70;;;25.00;46.40;;;;;;5012967;28;20460;-81
2022/05/01 08:26:17;;;;;;;8.10;3.55;;;24.30;46.10;;;;;;5013012;28;20029;-81
2022/05/01 08:28:45;;;;;;;4.50;3.22;;;24.00;47.70;;;;;;5016488;28;20022;-87
2022/05/01 08:31:11;;;;;;;6.45;4.13;;;23.50;47.80;;;;;;5016156;28;20097;-81
2022/05/01 08:33:37;;;;;;;4.80;3.70;;;23.70;48.40;;;;;;5014697;28;20120;-83
2022/05/01 08:36:05;;;;;;;5.65;3.40;;;23.70;48.40;;;;;;5014658;28;20404;-82
2022/05/01 08:38:31;;;;;;;6.93;3.38;;;23.40;48.10;;;;;;5015295;28;20088;-77
2022/05/01 08:40:57;;;;;;;5.32;3.20;;;23.10;48.70;;;;;;5016095;28;20084;-81
2022/05/01 08:43:24;;;;;;;8.40;3.53;;;23.40;48.60;;;;;;5014725;28;20103;-79
2022/05/01 08:45:53;;;;;;;7.50;3.78;;;24.00;48.90;;;;;;5015114;28;20109;-84
2022/05/01 08:48:36;;;;;;;7.38;3.80;;;24.30;47.60;;;;;;5016235;28;20018;-82
2022/05/01 08:51:04;;;;;;;15.77;3.78;;;24.40;49.30;;;;;;5016010;28;20092;-82
2022/05/01 08:53:31;;;;;;;5.13;2.70;;;24.60;47.30;;;;;;5014826;28;20025;-79
2022/05/01 08:55:57;;;;;;;7.72;3.00;;;25.40;46.20;;;;;;5014574;28;20368;-80
2022/05/01 08:58:23;;;;;;;5.38;3.10;;;25.60;47.00;;;;;;5014516;28;20468;-81
2022/05/01 09:00:51;;;;;;;5.00;2.95;;;25.60;44.30;;;;;;5014688;28;20072;-80
2022/05/01 09:03:17;;;;;;;20.58;3.20;;;24.60;47.00;;;;;;5014623;28;20369;-84
2022/05/01 09:05:44;;;;;;;4.90;2.95;;;24.60;46.20;;;;;;5015694;28;20026;-84
2022/05/01 09:08:10;;;;;;;7.68;2.95;;;24.20;46.20;;;;;;5015592;28;20078;-85
2022/05/01 09:10:36;;;;;;;6.32;3.00;;;24.20;46.80;;;;;;5014401;28;20017;-81
2022/05/01 09:13:03;;;;;;;5.28;2.80;;;24.50;46.20;;;;;;5015609;28;20060;-84
2022/05/01 09:15:31;;;;;;;4.72;2.80;;;24.00;47.10;;;;;;5015401;28;20018;-83
2022/05/01 09:18:10;;;;;;;5.07;2.70;;;23.90;46.80;;;;;;5016138;28;20523;-80
2022/05/01 09:20:38;;;;;;;4.10;2.85;;;23.90;46.90;;;;;;5035263;28;20045;-78
2022/05/01 09:23:05;;;;;;;6.22;3.38;;;24.60;45.70;;;;;;5017671;28;20104;-81
2022/05/01 09:25:32;;;;;;;6.25;2.85;;;25.30;46.90;;;;;;5017110;28;20022;-84
2022/05/01 09:28:00;;;;;;;3.88;2.85;;;25.80;44.40;;;;;;5017289;28;20528;-82
2022/05/01 09:30:38;;;;;;;11.38;3.63;;;26.40;44.50;;;;;;5017378;28;20018;-81
2022/05/01 09:33:04;;;;;;;8.93;3.67;;;26.60;44.70;;;;;;5014721;28;20067;-84
2022/05/01 09:35:33;;;;;;;9.45;3.53;;;25.60;43.30;;;;;;5034860;28;20056;-80
2022/05/01 09:38:23;;;;;;;10.53;3.57;;;24.80;44.60;;;;;;5034424;28;20052;-80
2022/05/01 09:40:55;;;;;;;5.95;3.20;;;25.30;45.40;;;;;;5034567;28;20344;-79
2022/05/01 09:43:37;;;;;;;6.20;3.40;;;25.50;43.70;;;;;;5017215;28;20029;-81
2022/05/01 09:46:22;;;;;;;5.68;3.63;;;25.10;45.10;;;;;;5034566;28;20013;-80
2022/05/01 09:49:00;;;;;;;5.07;3.50;;;25.90;45.40;;;;;;5016784;28;20053;-81
2022/05/01 09:51:27;;;;;;;10.27;3.45;;;26.90;43.10;;;;;;5016777;28;20029;-86
2022/05/01 09:53:53;;;;;;;5.60;3.67;;;26.70;42.40;;;;;;5016501;28;20030;-88
2022/05/01 09:56:18;;;;;;;5.05;3.70;;;26.20;44.00;;;;;;5034062;28;20028;-79
2022/05/01 09:58:45;;;;;;;7.20;3.45;;;26.60;43.70;;;;;;5034310;28;20029;-79
2022/05/01 10:01:13;;;;;;;7.82;3.90;;;27.10;43.60;;;;;;5033968;28;20096;-78
2022/05/01 10:03:46;;;;;;;5.35;3.60;;;27.70;43.30;;;;;;5016217;28;20017;-82
2022/05/01 10:06:14;;;;;;;6.05;3.67;;;27.80;43.90;;;;;;5016609;28;20460;-81
2022/05/01 10:08:42;;;;;;;5.50;3.40;;;28.00;42.50;;;;;;5033828;28;20013;-83
2022/05/01 10:11:09;;;;;;;5.72;3.85;;;27.00;42.30;;;;;;5016343;28;20026;-82
2022/05/01 10:13:36;;;;;;;6.63;3.47;;;26.50;44.00;;;;;;5016221;28;20039;-82
2022/05/01 10:16:03;;;;;;;5.60;3.63;;;26.70;43.00;;;;;;5015803;28;20025;-86
2022/05/01 10:18:31;;;;;;;4.88;3.65;;;27.30;43.00;;;;;;5016035;28;20487;-83
2022/05/01 10:20:56;;;;;;;4.50;3.40;;;26.60;41.40;;;;;;5016464;28;20025;-81
2022/05/01 10:23:22;;;;;;;6.55;3.67;;;26.70;41.50;;;;;;5015823;28;20369;-79
2022/05/01 10:25:59;;;;;;;8.15;3.70;;;27.10;43.50;;;;;;5016372;28;20045;-80
2022/05/01 10:28:50;;;;;;;5.40;3.50;;;28.00;43.30;;;;;;5033812;28;20399;-84
2022/05/01 10:35:08;;;;;;;7.22;4.05;;;28.30;41.90;;;;;;5034043;28;20040;-83
2022/05/01 10:37:46;;;;;;;7.72;3.60;;;27.80;40.80;;;;;;5015913;28;20103;-77
2022/05/01 10:40:13;;;;;;;6.57;3.92;;;27.60;41.20;;;;;;5033351;28;20102;-83
2022/05/01 10:42:46;;;;;;;6.55;3.63;;;27.90;41.40;;;;;;5033487;28;20067;-82
2022/05/01 10:45:21;;;;;;;6.28;4.13;;;28.70;40.20;;;;;;5033115;28;20036;-82
2022/05/01 10:47:48;;;;;;;6.97;3.72;;;29.10;40.00;;;;;;5033611;28;20463;-82
2022/05/01 10:50:23;;;;;;;6.60;3.30;;;28.50;39.50;;;;;;5015856;28;20071;-81
2022/05/01 10:53:04;;;;;;;5.32;3.90;;;27.80;40.90;;;;;;5033526;28;20021;-82
2022/05/01 10:55:52;;;;;;;6.75;3.53;;;28.30;41.10;;;;;;5015690;28;20159;-82
2022/05/01 10:58:26;;;;;;;6.63;3.65;;;28.80;40.80;;;;;;5015617;28;20021;-81
2022/05/01 11:00:53;;;;;;;7.38;3.70;;;28.00;37.60;;;;;;5033393;28;20025;-84
2022/05/01 11:03:25;;;;;;;4.60;3.33;;;27.90;39.00;;;;;;5015490;28;20476;-82
2022/05/01 11:05:55;;;;;;;5.05;3.30;;;27.80;38.50;;;;;;5015644;28;20021;-83
2022/05/01 11:08:28;;;;;;;6.50;3.30;;;27.80;39.00;;;;;;5015799;28;20064;-81
2022/05/01 11:10:56;;;;;;;4.82;3.55;;;27.60;38.20;;;;;;5033475;28;20025;-81
2022/05/01 11:13:39;;;;;;;7.88;3.55;;;27.70;39.40;;;;;;5033027;28;20020;-84
2022/05/01 11:16:06;;;;;;;5.30;3.40;;;27.70;39.00;;;;;;5033037;28;20025;-84
2022/05/01 11:18:56;;;;;;;5.50;3.53;;;27.20;38.70;;;;;;5033193;28;20041;-81
2022/05/01 11:21:21;;;;;;;6.45;3.95;;;26.90;38.00;;;;;;5015091;28;20030;-82
2022/05/01 11:24:10;;;;;;;6.18;3.40;;;26.60;37.70;;;;;;5033249;28;20040;-82
2022/05/01 11:26:36;;;;;;;5.45;3.58;;;26.10;38.20;;;;;;5015548;28;20359;-84
2022/05/01 11:29:14;;;;;;;9.23;3.92;;;26.20;40.10;;;;;;5032862;28;20110;-85
2022/05/01 11:31:41;;;;;;;7.95;3.88;;;26.60;41.10;;;;;;5033045;28;20021;-87
2022/05/01 11:34:16;;;;;;;6.50;3.70;;;27.00;38.50;;;;;;5033301;28;20367;-84
2022/05/01 11:37:03;;;;;;;5.95;3.67;;;27.00;38.40;;;;;;5034300;28;20017;-81
2022/05/01 11:39:43;;;;;;;6.30;3.33;;;26.10;40.20;;;;;;5033011;28;20060;-83
2022/05/01 11:42:24;;;;;;;5.90;3.58;;;26.10;38.80;;;;;;5033109;28;20026;-81
2022/05/01 11:44:54;;;;;;;14.55;3.95;;;26.40;38.70;;;;;;5033022;28;20108;-80
2022/05/01 11:47:21;;;;;;;;;;;26.50;39.10;;;;;;5015993;28;20375;-85
2022/05/01 11:49:47;;;;;;;17.38;4.10;;;26.50;37.50;;;;;;5033041;28;19905;-83
2022/05/01 11:52:13;;;;;;;5.93;3.70;;;26.30;39.50;;;;;;5033221;28;20028;-87
2022/05/01 11:55:12;;;;;;;5.82;3.80;;;26.50;38.20;;;;;;5032968;28;20021;-83
2022/05/01 12:03:29;;;;;;;7.07;4.10;;;25.00;38.60;;;;;;4937580;29;20034;-82
2022/05/01 12:05:55;;;;;;;7.97;3.63;;;24.80;39.80;;;;;;4921719;29;20032;-83
2022/05/01 12:08:22;;;;;;;6.28;4.15;;;25.20;39.60;;;;;;4937468;29;20047;-83
2022/05/01 12:10:48;;;;;;;8.20;4.00;;;25.30;39.00;;;;;;4937036;29;20036;-86
2022/05/01 12:13:23;;;;;;;7.85;3.72;;;25.60;39.50;;;;;;4937347;29;20043;-83
2022/05/01 12:15:50;;;;;;;27.02;4.90;;;25.80;39.80;;;;;;4937014;29;20082;-81
2022/05/01 12:18:17;;;;;;;7.25;3.88;;;25.90;38.40;;;;;;4921533;29;20376;-84
2022/05/01 12:20:43;;;;;;;7.07;3.72;;;26.10;39.60;;;;;;4937511;29;20036;-82
2022/05/01 12:23:19;;;;;;;13.02;3.78;;;26.80;40.10;;;;;;4936353;29;20055;-81
2022/05/01 12:25:48;;;;;;;7.10;3.38;;;27.60;40.40;;;;;;4920824;29;20541;-79
2022/05/01 12:28:15;;;;;;;16.15;5.32;;;27.90;39.20;;;;;;4920420;29;20020;-80
2022/05/01 12:30:42;;;;;;;32.33;15.45;;;27.60;37.30;;;;;;4923710;29;20462;-80
2022/05/01 12:33:18;;;;;;;13.32;7.10;;;27.60;37.50;;;;;;4993800;28;20029;-80
2022/05/01 12:36:01;;;;;;;104.97;37.83;;;27.90;37.90;;;;;;5036018;28;20018;-81
2022/05/01 12:38:30;;;;;;;46.95;24.33;;;27.90;37.90;;;;;;5018484;28;20065;-86
2022/05/01 12:43:59;;;;;;;8.40;5.03;;;26.60;38.70;;;;;;5036244;28;20040;-82
2022/05/01 12:46:29;;;;;;;5.75;3.90;;;26.60;39.30;;;;;;5035822;28;20036;-82
2022/05/01 12:50:27;;;;;;;10.68;5.53;;;25.60;37.70;;;;;;5084372;27;1453692;-82
2022/05/01 12:52:55;;;;;;;12.70;5.38;;;25.10;38.70;;;;;;5092864;28;20031;-81
2022/05/01 12:55:42;;;;;;;8.23;4.78;;;25.50;39.50;;;;;;5092971;28;20033;-82
2022/05/01 12:58:11;;;;;;;8.38;4.15;;;26.30;38.90;;;;;;5092686;28;20530;-84
2022/05/01 13:00:40;;;;;;;5.22;3.92;;;27.20;37.60;;;;;;5110964;28;20036;-83
2022/05/01 13:03:29;;;;;;;5.50;3.50;;;27.70;37.00;;;;;;5092978;28;20069;-83
2022/05/01 13:05:56;;;;;;;10.68;4.13;;;28.20;38.00;;;;;;5111005;28;20061;-82
2022/05/01 13:08:22;;;;;;;8.55;4.00;;;28.10;35.90;;;;;;5092807;28;20020;-83
2022/05/01 13:11:10;;;;;;;5.15;3.53;;;27.40;39.40;;;;;;5110389;28;20038;-84
2022/05/01 13:13:57;;;;;;;5.32;3.40;;;27.80;36.60;;;;;;5104278;28;20020;-81
2022/05/01 13:16:31;;;;;;;7.38;3.40;;;28.40;37.30;;;;;;5110786;28;20526;-82
2022/05/01 13:19:02;;;;;;;8.45;3.17;;;28.70;38.60;;;;;;5092419;28;20020;-82
2022/05/01 13:21:30;;;;;;;;;;;28.80;36.80;;;;;;5092894;28;20039;-82